Back to top

Casper, Wyoming Weather

Natrona County International Airport, Casper, WY: 11/15/2019 13:53
Visibility10 statute milesclear sky
View 7-Day Forecast
Area Summary
Sky/CloudsSky Clear
Weather [last 24 hours]None [rain began 13:30 ended 13:31 ]
Pressure30.05 in.Hg (1018 hPa)
3-hour Pressure Tendency0.04724 in.Hg (1.6 hPa) Decreasing, then steady, or decreasing then decreasing more slowly
Dew Point27 °F (-2.8 °C)
Relative Humidity30.4 %
Hourly PrecipitationTrace
3 Hour Precip. Rpt.Trace
Last 24-Hour Precip.Trace
Temperature57.9 °F (14.4 °C)red thermometer
Reading TimeMinimum to Maximum Temperature
6-hr ending 11/15@10:5339 °F to 55.9 °F (3.9 °C to 13.3 °C)
6-hr ending 11/15@04:5336 °F to 42.1 °F (2.2 °C to 5.6 °C)
6-hr ending 11/14@22:5330 °F to 42.1 °F (-1.1 °C to 5.6 °C)
6-hr ending 11/14@16:5342.1 °F to 51.1 °F (5.6 °C to 10.6 °C)
24-hr ending 11/14@23:5319.9 °F to 51.1 °F (-6.7 °C to 10.6 °C)
Wind17.3 MPH (15 KT) green arrow pointing 202.5 degrees
Wind FromSouth/Southwest (200 Degrees)
Last Hour's Peak Wind31.1 MPH (27 KT) on 11/15@12:55
Last Hour's Peak Wind FromSouth/Southwest (210 Degrees)
Rolling 24-hr Peak Wind35.7 MPH (31 KT) on 11/15@09:40
Rolling 24-hr Peak Wind FromSouth/Southwest (200 Degrees)
Twilight Begins06:28Sunshine Yesterday
Sunrise06:59N/A
Sunset16:42
Twilight Ends17:12
METARKCPR 152053Z 20015KT 10SM CLR 14/M03 A3005 RMK AO2 PK WND 21027/1955 RAB30E31 SLP154 P0000 60000 T01441028 56016